Time;durP1;ratioP1;P1;durP2;ratioP2;P2;SDS_P1;SDS_P2;PMS_P1;PMS_P2;Temp;Humidity;BMP_temperature;BMP_pressure;BME280_temperature;BME280_humidity;BME280_pressure;Samples;Min_cycle;Max_cycle;Signal;HPM_P1;HPM_P2
2022/09/23 00:01:57;;;;;;;0.10;0.10;;;9.40;99.90;;;;;;5053382;28;20044;-80
2022/09/23 00:04:26;;;;;;;0.10;0.10;;;9.40;99.90;;;;;;5066998;28;20488;-79
2022/09/23 00:06:53;;;;;;;0.10;0.10;;;9.40;99.90;;;;;;5067922;28;20048;-78
2022/09/23 00:09:20;;;;;;;0.10;0.10;;;9.40;99.90;;;;;;5069513;28;20513;-79
2022/09/23 00:11:46;;;;;;;0.10;0.10;;;9.40;99.90;;;;;;5062308;28;20036;-81
2022/09/23 00:14:13;;;;;;;0.10;0.10;;;9.40;99.90;;;;;;5065467;28;20386;-80
2022/09/23 00:16:40;;;;;;;0.10;0.10;;;9.40;99.90;;;;;;5067673;28;20044;-79
2022/09/23 00:19:07;;;;;;;0.10;0.10;;;9.40;99.90;;;;;;5069824;28;20072;-80
2022/09/23 00:21:35;;;;;;;0.10;0.10;;;9.40;99.90;;;;;;5071924;28;20040;-79
2022/09/23 00:24:02;;;;;;;0.10;0.10;;;9.40;99.90;;;;;;5060930;28;20044;-79
2022/09/23 00:26:28;;;;;;;0.10;0.10;;;9.40;99.90;;;;;;5077492;28;20076;-80
2022/09/23 00:28:55;;;;;;;0.10;0.10;;;9.40;99.90;;;;;;5066753;28;20505;-80
2022/09/23 00:31:24;;;;;;;0.10;0.10;;;9.40;99.90;;;;;;5078704;28;20048;-79
2022/09/23 00:33:55;;;;;;;0.08;0.08;;;9.40;99.90;;;;;;5057495;28;20643;-78
2022/09/23 00:36:22;;;;;;;0.00;0.00;;;9.40;99.90;;;;;;5065651;28;20489;-80
2022/09/23 00:38:52;;;;;;;0.10;0.10;;;9.40;99.90;;;;;;5058539;28;20043;-77
2022/09/23 00:41:20;;;;;;;0.10;0.10;;;9.30;99.90;;;;;;5070993;28;20047;-78
2022/09/23 00:43:49;;;;;;;0.10;0.10;;;9.30;99.90;;;;;;5060173;28;20163;-79
2022/09/23 00:46:19;;;;;;;0.00;0.00;;;9.30;99.90;;;;;;5061708;28;20496;-77
2022/09/23 00:48:46;;;;;;;;;;;9.30;99.90;;;;;;5062172;28;20052;-79
2022/09/23 00:51:18;;;;;;;0.10;0.10;;;10.20;99.90;;;;;;5062079;28;19924;-80
2022/09/23 00:53:47;;;;;;;0.10;0.10;;;9.20;99.90;;;;;;5059093;28;20041;-80
2022/09/23 00:56:16;;;;;;;0.10;0.10;;;9.20;99.90;;;;;;5059285;28;20068;-80
2022/09/23 00:58:45;;;;;;;0.10;0.10;;;9.20;99.90;;;;;;5063242;28;20044;-80
2022/09/23 01:01:15;;;;;;;0.10;0.10;;;9.20;99.90;;;;;;5057753;28;20500;-78
2022/09/23 01:03:43;;;;;;;;;;;9.10;99.90;;;;;;5059156;28;20071;-77
2022/09/23 01:06:11;;;;;;;0.10;0.10;;;9.20;99.90;;;;;;5060725;28;19925;-79
2022/09/23 01:08:38;;;;;;;0.10;0.10;;;9.20;99.90;;;;;;5066615;28;20029;-80
2022/09/23 01:11:17;;;;;;;0.10;0.10;;;9.10;99.90;;;;;;5069227;28;20090;-80
2022/09/23 01:13:53;;;;;;;0.10;0.10;;;9.10;99.90;;;;;;5057216;28;20465;-79
2022/09/23 01:16:25;;;;;;;0.10;0.10;;;9.10;99.90;;;;;;5075055;28;20064;-80
2022/09/23 01:18:59;;;;;;;0.10;0.10;;;9.10;99.90;;;;;;5061026;28;20037;-80
2022/09/23 01:21:38;;;;;;;0.10;0.10;;;9.20;99.90;;;;;;5067898;28;20048;-81
2022/09/23 01:24:22;;;;;;;0.10;0.10;;;9.10;99.90;;;;;;5058190;28;20033;-80
2022/09/23 01:26:57;;;;;;;0.10;0.10;;;9.00;99.90;;;;;;5071991;28;20048;-78
2022/09/23 01:29:58;;;;;;;0.10;0.10;;;9.00;99.90;;;;;;5072568;28;20039;-80
2022/09/23 01:32:36;;;;;;;0.00;0.00;;;9.00;99.90;;;;;;5054234;28;20044;-80
2022/09/23 01:35:09;;;;;;;0.10;0.10;;;8.90;99.90;;;;;;5058924;28;20043;-80
2022/09/23 01:37:45;;;;;;;0.10;0.10;;;8.90;99.90;;;;;;5061325;28;20063;-78
2022/09/23 01:40:18;;;;;;;0.10;0.10;;;8.80;99.90;;;;;;5068266;28;20041;-78
2022/09/23 01:42:51;;;;;;;0.10;0.10;;;8.80;99.90;;;;;;5065033;28;20033;-79
2022/09/23 01:45:22;;;;;;;0.10;0.10;;;8.80;99.90;;;;;;5067459;28;20080;-78
2022/09/23 01:47:54;;;;;;;0.10;0.10;;;8.80;99.90;;;;;;5057573;28;20048;-80
2022/09/23 01:53:17;;;;;;;0.10;0.10;;;8.70;99.90;;;;;;5063590;28;20326;-78
2022/09/23 01:55:49;;;;;;;0.10;0.10;;;8.60;99.90;;;;;;5061515;28;20405;-78
2022/09/23 01:58:23;;;;;;;0.10;0.10;;;8.60;99.90;;;;;;5059185;28;20055;-80
2022/09/23 02:00:57;;;;;;;0.10;0.10;;;8.60;99.90;;;;;;5086812;28;20446;-78
2022/09/23 02:03:31;;;;;;;0.10;0.10;;;8.50;99.90;;;;;;5082628;28;20434;-79
2022/09/23 02:06:02;;;;;;;0.10;0.10;;;8.50;99.90;;;;;;5069074;28;20055;-80
2022/09/23 02:08:34;;;;;;;0.10;0.10;;;8.40;99.90;;;;;;5063661;28;20404;-78
2022/09/23 02:11:06;;;;;;;0.10;0.10;;;8.50;99.90;;;;;;5064746;28;20052;-79
2022/09/23 02:13:38;;;;;;;0.10;0.10;;;8.40;99.90;;;;;;5071781;28;20040;-79
2022/09/23 02:16:10;;;;;;;0.10;0.10;;;8.40;99.90;;;;;;5058528;28;20419;-79
2022/09/23 02:18:44;;;;;;;0.10;0.10;;;8.40;99.90;;;;;;5066563;28;20048;-79
2022/09/23 02:21:14;;;;;;;0.10;0.10;;;8.40;99.90;;;;;;5065282;28;20055;-81
2022/09/23 02:23:44;;;;;;;0.10;0.10;;;8.40;99.90;;;;;;5056528;28;20556;-78
2022/09/23 02:26:18;;;;;;;0.10;0.10;;;8.40;99.90;;;;;;5056583;28;20037;-80
2022/09/23 02:28:53;;;;;;;0.10;0.10;;;8.40;99.90;;;;;;5058310;28;20043;-80
2022/09/23 02:31:28;;;;;;;0.10;0.10;;;8.40;99.90;;;;;;5063837;28;20516;-79
2022/09/23 02:34:01;;;;;;;0.10;0.10;;;8.40;99.90;;;;;;5075103;28;20071;-79
2022/09/23 02:36:31;;;;;;;0.10;0.10;;;8.30;99.90;;;;;;5062011;28;20134;-78
2022/09/23 02:39:01;;;;;;;0.10;0.10;;;8.40;99.90;;;;;;5066348;28;20046;-78
2022/09/23 02:41:32;;;;;;;0.10;0.10;;;8.40;99.90;;;;;;5073870;28;20043;-78
2022/09/23 02:44:05;;;;;;;0.10;0.10;;;8.30;99.90;;;;;;5079201;28;20044;-78
2022/09/23 02:46:32;;;;;;;0.10;0.10;;;8.30;99.90;;;;;;5061149;28;20040;-80
2022/09/23 02:49:09;;;;;;;0.10;0.10;;;8.20;99.90;;;;;;5063718;28;20085;-79
2022/09/23 02:51:37;;;;;;;0.10;0.10;;;8.30;99.90;;;;;;5061994;28;20508;-80
2022/09/23 02:54:06;;;;;;;0.10;0.10;;;8.20;99.90;;;;;;5059204;28;20507;-79
2022/09/23 02:56:33;;;;;;;0.10;0.10;;;8.20;99.90;;;;;;5066639;28;20040;-79
2022/09/23 02:59:01;;;;;;;0.10;0.10;;;8.20;99.90;;;;;;5056970;28;20044;-77
2022/09/23 03:01:38;;;;;;;0.10;0.10;;;8.20;99.90;;;;;;5075984;28;20044;-78
2022/09/23 03:04:14;;;;;;;0.10;0.10;;;8.30;99.90;;;;;;5073230;28;20055;-80
2022/09/23 03:06:51;;;;;;;0.10;0.10;;;8.30;99.90;;;;;;5075685;28;20029;-78
2022/09/23 03:09:23;;;;;;;0.10;0.10;;;8.30;99.90;;;;;;5062902;28;20041;-81
2022/09/23 03:11:59;;;;;;;0.10;0.10;;;8.20;99.90;;;;;;5055495;28;20489;-79
2022/09/23 03:14:36;;;;;;;0.10;0.10;;;8.30;99.90;;;;;;5065897;28;20496;-79
2022/09/23 03:17:09;;;;;;;0.10;0.10;;;8.20;99.90;;;;;;5084064;22;20045;-82
2022/09/23 03:19:42;;;;;;;0.10;0.10;;;8.20;99.90;;;;;;5045990;28;20501;-81
2022/09/23 03:22:11;;;;;;;0.10;0.10;;;8.20;99.90;;;;;;5044424;28;20052;-82
2022/09/23 03:24:43;;;;;;;0.10;0.10;;;8.20;99.90;;;;;;5043015;28;20043;-81
2022/09/23 03:27:15;;;;;;;0.10;0.10;;;8.20;99.90;;;;;;5052110;28;20123;-81
2022/09/23 03:29:45;;;;;;;0.10;0.10;;;8.20;99.90;;;;;;5043911;28;20144;-80
2022/09/23 03:32:14;;;;;;;0.10;0.10;;;8.20;99.90;;;;;;5044154;28;20037;-82
2022/09/23 03:34:46;;;;;;;0.10;0.10;;;8.20;99.90;;;;;;5047242;28;20041;-82
2022/09/23 03:37:17;;;;;;;0.10;0.10;;;8.20;99.90;;;;;;5045354;28;20049;-81
2022/09/23 03:39:49;;;;;;;0.10;0.10;;;8.20;99.90;;;;;;5044858;28;20524;-80
2022/09/23 03:42:22;;;;;;;0.10;0.10;;;8.30;99.90;;;;;;5043686;28;20049;-80
2022/09/23 03:44:53;;;;;;;0.00;0.00;;;8.20;99.90;;;;;;5047510;28;20051;-81
2022/09/23 03:47:20;;;;;;;0.10;0.10;;;8.20;99.90;;;;;;5042983;28;20524;-80
2022/09/23 03:49:49;;;;;;;0.10;0.10;;;8.20;99.90;;;;;;5041577;28;20057;-80
2022/09/23 03:52:18;;;;;;;0.03;0.03;;;8.20;99.90;;;;;;5048612;28;20056;-81
2022/09/23 03:54:45;;;;;;;0.10;0.10;;;8.20;99.90;;;;;;5040771;28;20053;-81
2022/09/23 03:57:13;;;;;;;0.08;0.08;;;8.30;99.90;;;;;;5043654;28;20045;-81
2022/09/23 03:59:40;;;;;;;0.00;0.00;;;8.30;99.90;;;;;;5040445;28;20551;-81
2022/09/23 04:02:07;;;;;;;0.10;0.10;;;8.30;99.90;;;;;;5043200;28;20047;-81
2022/09/23 04:04:35;;;;;;;0.10;0.10;;;8.30;99.90;;;;;;5046388;28;20818;-80
2022/09/23 04:07:04;;;;;;;0.10;0.10;;;8.30;99.90;;;;;;5041035;28;20029;-81
2022/09/23 04:09:31;;;;;;;0.00;0.00;;;8.30;99.90;;;;;;5045520;28;20048;-81
2022/09/23 04:11:57;;;;;;;0.10;0.10;;;8.30;99.90;;;;;;5044115;28;22485;-81
2022/09/23 04:14:24;;;;;;;0.10;0.10;;;8.30;99.90;;;;;;5046307;28;20033;-81
2022/09/23 04:16:51;;;;;;;0.00;0.00;;;8.30;99.90;;;;;;5037886;28;20051;-81
2022/09/23 04:19:18;;;;;;;0.10;0.10;;;8.40;99.90;;;;;;5047562;28;20041;-80
2022/09/23 04:21:45;;;;;;;0.10;0.10;;;8.40;99.90;;;;;;5039974;28;20045;-81
2022/09/23 04:24:14;;;;;;;0.10;0.10;;;8.40;99.90;;;;;;5047700;28;20243;-80
2022/09/23 04:26:41;;;;;;;0.10;0.10;;;8.40;99.90;;;;;;5043966;28;20076;-81
2022/09/23 04:29:09;;;;;;;0.10;0.10;;;8.40;99.90;;;;;;5058465;28;20493;-79
2022/09/23 04:31:37;;;;;;;0.10;0.10;;;8.40;99.90;;;;;;5037629;28;20048;-81
2022/09/23 04:34:03;;;;;;;0.10;0.10;;;8.40;99.90;;;;;;5039407;28;20048;-81
2022/09/23 04:36:30;;;;;;;0.10;0.10;;;8.40;99.90;;;;;;5040023;28;20041;-80
2022/09/23 04:38:57;;;;;;;0.10;0.10;;;8.40;99.90;;;;;;5042949;28;20084;-81
2022/09/23 04:41:25;;;;;;;0.00;0.00;;;8.40;99.90;;;;;;5039341;28;20048;-82
2022/09/23 04:43:52;;;;;;;0.10;0.10;;;8.40;99.90;;;;;;5046443;28;20055;-81
2022/09/23 04:46:19;;;;;;;0.10;0.10;;;8.40;99.90;;;;;;5045788;28;20051;-80
2022/09/23 04:48:46;;;;;;;0.10;0.10;;;8.40;99.90;;;;;;5046881;28;20049;-81
2022/09/23 04:51:14;;;;;;;0.10;0.10;;;8.40;99.90;;;;;;5047730;28;20411;-80
2022/09/23 04:53:43;;;;;;;0.10;0.10;;;8.40;99.90;;;;;;5050321;28;20416;-81
2022/09/23 04:56:12;;;;;;;0.10;0.10;;;8.50;99.90;;;;;;5036637;28;20041;-80
2022/09/23 04:58:42;;;;;;;0.10;0.10;;;8.50;99.90;;;;;;5054959;28;20528;-81
2022/09/23 05:01:10;;;;;;;0.10;0.10;;;8.50;99.90;;;;;;5054264;28;20037;-81
2022/09/23 05:03:37;;;;;;;0.10;0.10;;;8.50;99.90;;;;;;5043918;28;20063;-81
2022/09/23 05:06:05;;;;;;;0.00;0.00;;;8.50;99.90;;;;;;5047015;28;20076;-81
2022/09/23 05:08:32;;;;;;;0.10;0.10;;;8.60;99.90;;;;;;5049131;28;20047;-81
2022/09/23 05:10:59;;;;;;;0.10;0.10;;;8.50;99.90;;;;;;5048433;28;20043;-81
2022/09/23 05:13:26;;;;;;;0.10;0.10;;;8.60;99.90;;;;;;5046980;28;20056;-81
2022/09/23 05:16:00;;;;;;;0.03;0.03;;;8.60;99.90;;;;;;5045060;28;20037;-81
2022/09/23 05:18:27;;;;;;;0.10;0.10;;;8.60;99.90;;;;;;5048984;28;20041;-81
2022/09/23 05:20:54;;;;;;;0.10;0.10;;;8.60;99.90;;;;;;5050477;28;20049;-81
2022/09/23 05:23:21;;;;;;;0.10;0.10;;;8.60;99.90;;;;;;5046446;28;20044;-80
2022/09/23 05:25:48;;;;;;;0.10;0.10;;;8.60;99.90;;;;;;5042127;28;20895;-81
2022/09/23 05:28:18;;;;;;;0.10;0.10;;;8.50;99.90;;;;;;5047675;28;20044;-81
2022/09/23 05:30:45;;;;;;;0.10;0.10;;;8.50;99.90;;;;;;5044717;28;20076;-81
2022/09/23 05:33:13;;;;;;;0.10;0.10;;;8.40;99.90;;;;;;5050784;28;20413;-81
2022/09/23 05:35:46;;;;;;;0.10;0.10;;;8.50;99.90;;;;;;5046224;28;20040;-81
2022/09/23 05:38:15;;;;;;;0.10;0.10;;;8.40;99.90;;;;;;5042451;28;21688;-81
2022/09/23 05:40:42;;;;;;;0.10;0.10;;;8.40;99.90;;;;;;5048540;28;20049;-81
2022/09/23 05:43:09;;;;;;;0.00;0.00;;;8.40;99.90;;;;;;5052205;28;20292;-81
2022/09/23 05:45:36;;;;;;;0.10;0.10;;;8.40;99.90;;;;;;5051153;28;20051;-81
2022/09/23 05:48:03;;;;;;;0.10;0.10;;;8.50;99.90;;;;;;5059234;28;20049;-81
2022/09/23 05:50:31;;;;;;;0.10;0.10;;;8.50;99.90;;;;;;5057858;28;20049;-80
2022/09/23 05:52:58;;;;;;;0.10;0.10;;;8.50;99.90;;;;;;5050567;28;20038;-81
2022/09/23 05:55:25;;;;;;;0.10;0.10;;;8.50;99.90;;;;;;5041187;28;20045;-81
2022/09/23 05:57:52;;;;;;;0.10;0.10;;;8.50;99.90;;;;;;5060703;28;20033;-80
2022/09/23 06:00:19;;;;;;;0.03;0.03;;;8.50;99.90;;;;;;5065134;28;20120;-81
2022/09/23 06:02:46;;;;;;;0.10;0.10;;;8.50;99.90;;;;;;5051828;28;20057;-80
2022/09/23 06:05:15;;;;;;;0.10;0.10;;;8.50;99.90;;;;;;5054343;28;20078;-81
2022/09/23 06:07:43;;;;;;;0.10;0.10;;;8.50;99.90;;;;;;5056756;28;20465;-80
2022/09/23 06:10:10;;;;;;;0.10;0.10;;;8.50;99.90;;;;;;5053390;28;20467;-81
2022/09/23 06:12:37;;;;;;;0.10;0.10;;;8.50;99.90;;;;;;5050544;28;20052;-80
2022/09/23 06:15:05;;;;;;;0.10;0.10;;;8.50;99.90;;;;;;5051558;28;20062;-81
2022/09/23 06:17:31;;;;;;;0.10;0.10;;;8.50;99.90;;;;;;5055358;28;20461;-81
2022/09/23 06:19:58;;;;;;;0.10;0.10;;;8.50;99.90;;;;;;5061300;28;20048;-81
2022/09/23 06:22:25;;;;;;;0.10;0.10;;;8.60;99.90;;;;;;5056585;28;20114;-81
2022/09/23 06:24:53;;;;;;;0.10;0.10;;;8.60;99.90;;;;;;5072933;28;20606;-81
2022/09/23 06:27:20;;;;;;;0.10;0.10;;;8.50;99.90;;;;;;5044979;28;20042;-81
2022/09/23 06:29:48;;;;;;;0.10;0.10;;;8.50;99.90;;;;;;5048694;28;20037;-81
2022/09/23 06:32:15;;;;;;;0.10;0.10;;;8.60;99.90;;;;;;5057256;28;20338;-81
2022/09/23 06:34:44;;;;;;;0.10;0.10;;;8.70;99.90;;;;;;5051614;28;20109;-81
2022/09/23 06:37:17;;;;;;;0.10;0.10;;;8.70;99.90;;;;;;5059053;28;20032;-81
2022/09/23 06:39:47;;;;;;;0.10;0.10;;;8.70;99.90;;;;;;5049635;28;20471;-81
2022/09/23 06:42:16;;;;;;;0.10;0.10;;;8.80;99.90;;;;;;5057448;28;20123;-81
2022/09/23 06:44:42;;;;;;;0.03;0.03;;;8.80;99.90;;;;;;5052311;28;20041;-81
2022/09/23 06:47:09;;;;;;;0.10;0.10;;;8.80;99.90;;;;;;5062051;28;20043;-81
2022/09/23 06:49:36;;;;;;;0.10;0.10;;;8.90;99.90;;;;;;5053261;28;20045;-80
2022/09/23 06:52:03;;;;;;;0.10;0.10;;;8.90;99.90;;;;;;5055452;28;20104;-81
2022/09/23 06:54:30;;;;;;;0.10;0.10;;;8.90;99.90;;;;;;5049921;28;20362;-81
2022/09/23 06:56:57;;;;;;;0.10;0.10;;;9.10;99.90;;;;;;5061635;28;20102;-81
2022/09/23 06:59:25;;;;;;;0.10;0.10;;;9.20;99.90;;;;;;5051383;28;20042;-81
2022/09/23 07:01:52;;;;;;;0.08;0.08;;;9.40;99.90;;;;;;5049400;28;20123;-81
2022/09/23 07:04:19;;;;;;;0.10;0.10;;;9.50;99.90;;;;;;5045981;28;20045;-81
2022/09/23 07:06:46;;;;;;;0.10;0.10;;;9.60;99.90;;;;;;5056307;28;20113;-81
2022/09/23 07:09:13;;;;;;;0.00;0.00;;;9.70;99.90;;;;;;5060179;28;20127;-81
2022/09/23 07:11:40;;;;;;;0.10;0.10;;;9.80;99.90;;;;;;5052110;28;20069;-81
2022/09/23 07:14:06;;;;;;;0.00;0.00;;;10.00;99.90;;;;;;5056394;28;20040;-81
2022/09/23 07:16:35;;;;;;;0.10;0.10;;;10.00;99.90;;;;;;5053542;28;20112;-81
2022/09/23 07:19:01;;;;;;;0.00;0.00;;;10.10;99.90;;;;;;5055048;28;20137;-81
2022/09/23 07:21:28;;;;;;;0.10;0.10;;;10.10;99.90;;;;;;5057534;28;20040;-81
2022/09/23 07:23:56;;;;;;;0.00;0.00;;;10.20;99.90;;;;;;5056920;28;20587;-81
2022/09/23 07:26:24;;;;;;;0.10;0.10;;;10.20;99.90;;;;;;5062385;28;20045;-82
2022/09/23 07:28:54;;;;;;;0.08;0.08;;;10.30;99.90;;;;;;5059441;28;20140;-82
2022/09/23 07:31:21;;;;;;;0.00;0.00;;;10.40;99.90;;;;;;5056642;28;20104;-83
2022/09/23 07:34:06;;;;;;;0.00;0.00;;;10.50;99.90;;;;;;5069471;28;20060;-81
2022/09/23 07:36:36;;;;;;;0.00;0.00;;;10.50;99.90;;;;;;5049012;28;20025;-81
2022/09/23 07:39:02;;;;;;;0.10;0.10;;;10.60;99.90;;;;;;5054416;28;20613;-81
2022/09/23 07:41:31;;;;;;;0.10;0.10;;;10.60;99.90;;;;;;5058826;28;20037;-81
2022/09/23 07:43:59;;;;;;;0.00;0.00;;;10.60;99.90;;;;;;5049623;28;20037;-82
2022/09/23 07:46:28;;;;;;;0.00;0.00;;;10.70;99.90;;;;;;5053497;28;20052;-80
2022/09/23 07:48:55;;;;;;;0.00;0.00;;;10.70;99.90;;;;;;5057044;28;20070;-80
2022/09/23 07:51:26;;;;;;;0.00;0.00;;;10.80;99.90;;;;;;5056323;28;20049;-81
2022/09/23 07:53:56;;;;;;;0.00;0.00;;;10.80;99.90;;;;;;5043659;28;20060;-81
2022/09/23 07:56:24;;;;;;;0.10;0.10;;;10.90;99.90;;;;;;5042931;28;20029;-82
2022/09/23 07:59:02;;;;;;;0.00;0.00;;;10.90;99.90;;;;;;5041949;28;20051;-82
2022/09/23 08:01:31;;;;;;;0.00;0.00;;;11.00;99.90;;;;;;5042736;28;20041;-80
2022/09/23 08:04:01;;;;;;;0.00;0.00;;;11.10;99.90;;;;;;5046258;28;20045;-80
2022/09/23 08:06:29;;;;;;;0.10;0.10;;;11.20;99.90;;;;;;5047509;28;20033;-82
2022/09/23 08:08:56;;;;;;;0.10;0.10;;;11.20;99.90;;;;;;5052301;28;20048;-80
2022/09/23 08:11:25;;;;;;;0.10;0.10;;;11.30;99.90;;;;;;5047569;28;20033;-81
2022/09/23 08:13:52;;;;;;;0.00;0.00;;;11.30;99.90;;;;;;5042809;28;20048;-80
2022/09/23 08:16:20;;;;;;;0.00;0.00;;;11.40;99.90;;;;;;5052812;28;20056;-80
2022/09/23 08:18:47;;;;;;;0.00;0.00;;;11.50;99.90;;;;;;5052378;28;20151;-80
2022/09/23 08:21:19;;;;;;;0.10;0.10;;;11.50;99.90;;;;;;5042839;28;20092;-81
2022/09/23 08:23:47;;;;;;;0.00;0.00;;;11.60;99.90;;;;;;5048888;28;20051;-80
2022/09/23 08:26:14;;;;;;;0.00;0.00;;;11.60;99.90;;;;;;5051740;28;20504;-80
2022/09/23 08:28:47;;;;;;;0.00;0.00;;;11.70;99.90;;;;;;5051137;28;20057;-80
2022/09/23 08:31:14;;;;;;;0.00;0.00;;;11.80;99.90;;;;;;5056463;28;20503;-80
2022/09/23 08:33:41;;;;;;;0.00;0.00;;;11.80;99.90;;;;;;5045007;28;20042;-82
2022/09/23 08:36:08;;;;;;;0.03;0.03;;;11.90;99.90;;;;;;5055330;28;20493;-81
2022/09/23 08:38:35;;;;;;;0.00;0.00;;;12.00;99.90;;;;;;5058932;28;20121;-80
2022/09/23 08:41:11;;;;;;;0.00;0.00;;;12.00;99.90;;;;;;5055787;28;20052;-80
2022/09/23 08:43:39;;;;;;;0.00;0.00;;;12.20;99.90;;;;;;5056855;28;20037;-81
2022/09/23 08:46:12;;;;;;;0.00;0.00;;;12.30;99.90;;;;;;5048343;28;20040;-81
2022/09/23 08:48:43;;;;;;;0.00;0.00;;;12.40;99.90;;;;;;5054750;28;20040;-81
2022/09/23 08:51:13;;;;;;;0.00;0.00;;;12.50;99.90;;;;;;5045958;28;20419;-81
2022/09/23 08:53:41;;;;;;;0.00;0.00;;;12.60;99.90;;;;;;5054094;28;20033;-81
2022/09/23 08:56:13;;;;;;;0.00;0.00;;;12.60;99.90;;;;;;5048995;28;20047;-81
2022/09/23 08:58:52;;;;;;;0.00;0.00;;;12.70;99.90;;;;;;5046692;28;20037;-82
2022/09/23 09:01:25;;;;;;;0.00;0.00;;;12.70;99.90;;;;;;5049267;28;20548;-80
2022/09/23 09:03:54;;;;;;;0.00;0.00;;;12.80;99.90;;;;;;5050428;28;20080;-81
2022/09/23 09:06:26;;;;;;;0.00;0.00;;;12.90;99.90;;;;;;5051855;28;20064;-80
2022/09/23 09:08:56;;;;;;;0.00;0.00;;;13.00;99.90;;;;;;5061514;28;20052;-81
2022/09/23 09:11:32;;;;;;;0.00;0.00;;;13.10;99.90;;;;;;5044599;28;20029;-80
2022/09/23 09:14:10;;;;;;;0.00;0.00;;;13.20;99.90;;;;;;5045375;28;20035;-82
2022/09/23 09:16:52;;;;;;;0.00;0.00;;;13.30;99.90;;;;;;5058541;28;20034;-80
2022/09/23 09:19:46;;;;;;;0.00;0.00;;;13.40;99.90;;;;;;5041912;28;20105;-81
2022/09/23 09:22:20;;;;;;;0.00;0.00;;;13.50;99.90;;;;;;5050968;28;20116;-81
2022/09/23 09:24:48;;;;;;;0.00;0.00;;;13.60;99.90;;;;;;5050616;28;20203;-81
2022/09/23 09:27:16;;;;;;;0.00;0.00;;;13.60;99.90;;;;;;5049569;28;20026;-81
2022/09/23 09:29:47;;;;;;;0.00;0.00;;;13.70;99.90;;;;;;5049846;28;20037;-81
2022/09/23 09:32:23;;;;;;;0.00;0.00;;;13.80;99.90;;;;;;5051826;28;20049;-80
2022/09/23 09:34:54;;;;;;;0.00;0.00;;;13.90;99.90;;;;;;5051496;28;20049;-81
2022/09/23 09:37:27;;;;;;;0.10;0.00;;;14.10;99.90;;;;;;5052481;28;20037;-80
2022/09/23 09:39:55;;;;;;;0.00;0.00;;;14.20;99.90;;;;;;5055254;28;20055;-80
2022/09/23 09:42:29;;;;;;;0.00;0.00;;;14.20;99.90;;;;;;5044894;28;20138;-81
2022/09/23 09:44:59;;;;;;;0.00;0.00;;;14.30;99.90;;;;;;5055955;28;20048;-81
2022/09/23 09:47:34;;;;;;;0.00;0.00;;;14.40;99.90;;;;;;5043583;28;20379;-81
2022/09/23 09:50:06;;;;;;;0.00;0.00;;;14.40;99.90;;;;;;5047824;28;20037;-81
2022/09/23 09:52:32;;;;;;;0.00;0.00;;;14.50;99.90;;;;;;5037171;28;20059;-80
2022/09/23 09:55:22;;;;;;;0.10;0.10;;;14.60;99.90;;;;;;5049531;28;20037;-81
2022/09/23 09:57:53;;;;;;;0.00;0.00;;;14.80;99.90;;;;;;5041567;28;20048;-81
2022/09/23 10:00:37;;;;;;;0.00;0.00;;;15.00;99.90;;;;;;5047760;28;20386;-81
2022/09/23 10:03:13;;;;;;;0.00;0.00;;;15.20;99.90;;;;;;5040342;28;20045;-81
2022/09/23 10:05:47;;;;;;;0.00;0.00;;;15.40;99.90;;;;;;5047137;28;20080;-80
2022/09/23 10:08:23;;;;;;;0.00;0.00;;;15.60;99.90;;;;;;5044329;28;20051;-81
2022/09/23 10:10:54;;;;;;;0.00;0.00;;;15.50;99.90;;;;;;5046050;28;20033;-81
2022/09/23 10:13:23;;;;;;;0.00;0.00;;;15.60;99.90;;;;;;5051101;28;20080;-80
2022/09/23 10:15:53;;;;;;;0.00;0.00;;;15.80;99.90;;;;;;5044274;28;20505;-81
2022/09/23 10:18:27;;;;;;;0.00;0.00;;;16.00;99.90;;;;;;5047128;28;20049;-81
2022/09/23 10:21:01;;;;;;;0.00;0.00;;;16.20;99.90;;;;;;5042500;28;20538;-81
2022/09/23 10:23:32;;;;;;;0.00;0.00;;;16.30;99.90;;;;;;5050756;28;20083;-81
2022/09/23 10:26:01;;;;;;;0.00;0.00;;;16.40;99.90;;;;;;5047221;28;20600;-81
2022/09/23 10:28:49;;;;;;;0.00;0.00;;;16.60;99.30;;;;;;5042548;28;20030;-80
2022/09/23 10:31:24;;;;;;;0.00;0.00;;;16.70;99.80;;;;;;5047038;28;20135;-80
2022/09/23 10:33:54;;;;;;;0.00;0.00;;;17.00;99.80;;;;;;5039533;28;20088;-81
2022/09/23 10:36:21;;;;;;;0.00;0.00;;;17.20;99.80;;;;;;5044873;28;20040;-81
2022/09/23 10:38:51;;;;;;;0.00;0.00;;;17.30;98.60;;;;;;5049750;28;20047;-81
2022/09/23 10:47:25;;;;;;;0.00;0.00;;;17.40;98.20;;;;;;5048397;28;20512;-81
2022/09/23 10:50:09;;;;;;;0.00;0.00;;;17.50;98.50;;;;;;5054396;28;20117;-81
2022/09/23 10:52:47;;;;;;;0.00;0.00;;;17.50;97.20;;;;;;5056031;28;20045;-81
2022/09/23 10:55:25;;;;;;;0.00;0.00;;;17.70;97.90;;;;;;5055407;28;20550;-81
2022/09/23 10:58:19;;;;;;;0.00;0.00;;;17.60;97.60;;;;;;5055960;28;20042;-81
2022/09/23 11:00:59;;;;;;;0.00;0.00;;;17.80;97.50;;;;;;5041110;28;20064;-80
2022/09/23 11:04:06;;;;;;;0.00;0.00;;;18.00;97.30;;;;;;5051045;28;20033;-81
2022/09/23 11:06:48;;;;;;;0.00;0.00;;;18.00;97.10;;;;;;5047429;28;20139;-81
2022/09/23 11:09:26;;;;;;;0.00;0.00;;;18.10;96.90;;;;;;5047219;28;20112;-81
2022/09/23 11:12:07;;;;;;;0.00;0.00;;;18.30;97.40;;;;;;5053564;28;20151;-81
2022/09/23 11:14:50;;;;;;;0.00;0.00;;;18.30;97.00;;;;;;5055558;28;20442;-81
2022/09/23 11:17:33;;;;;;;0.00;0.00;;;18.40;97.40;;;;;;5054058;28;20049;-81
2022/09/23 11:20:30;;;;;;;0.00;0.00;;;18.30;97.70;;;;;;5068971;28;20453;-81
2022/09/23 11:23:18;;;;;;;0.00;0.00;;;18.20;96.70;;;;;;5055478;28;20093;-81
2022/09/23 11:25:55;;;;;;;0.00;0.00;;;18.20;97.00;;;;;;5046817;28;20215;-81
2022/09/23 11:29:01;;;;;;;0.00;0.00;;;18.50;97.30;;;;;;5051945;28;20116;-81
2022/09/23 11:31:38;;;;;;;0.00;0.00;;;18.60;96.50;;;;;;5048187;28;20064;-80
2022/09/23 11:34:37;;;;;;;0.00;0.00;;;18.60;95.30;;;;;;5046645;28;20093;-81
2022/09/23 11:37:11;;;;;;;0.00;0.00;;;18.60;96.80;;;;;;5034499;28;20081;-80
2022/09/23 11:39:44;;;;;;;0.00;0.00;;;18.70;96.30;;;;;;5049276;28;20101;-80
2022/09/23 11:42:18;;;;;;;0.00;0.00;;;18.80;96.80;;;;;;5043148;28;20132;-81
2022/09/23 11:44:49;;;;;;;0.00;0.00;;;18.80;96.40;;;;;;5043506;28;20048;-80
2022/09/23 11:47:20;;;;;;;0.00;0.00;;;18.70;96.40;;;;;;5041203;28;20037;-80
2022/09/23 11:49:53;;;;;;;0.00;0.00;;;18.80;95.30;;;;;;5041146;28;20504;-81
2022/09/23 11:52:26;;;;;;;0.00;0.00;;;18.90;95.90;;;;;;5044970;28;20039;-81
2022/09/23 11:54:59;;;;;;;0.00;0.00;;;18.90;95.20;;;;;;5040064;28;20049;-81
2022/09/23 11:57:36;;;;;;;0.00;0.00;;;19.00;96.10;;;;;;5046945;28;20052;-80
2022/09/23 12:00:18;;;;;;;0.00;0.00;;;19.00;95.70;;;;;;5057218;28;20055;-81
2022/09/23 12:02:56;;;;;;;0.00;0.00;;;18.90;95.80;;;;;;5038854;28;20052;-81
2022/09/23 12:05:38;;;;;;;0.00;0.00;;;18.80;94.80;;;;;;5043517;28;20053;-80
2022/09/23 12:08:13;;;;;;;0.00;0.00;;;18.90;96.50;;;;;;5039815;28;20604;-80
2022/09/23 12:10:51;;;;;;;0.00;0.00;;;18.90;96.40;;;;;;5041591;28;20047;-80
2022/09/23 12:13:23;;;;;;;0.00;0.00;;;18.90;95.90;;;;;;5043057;28;20041;-80
2022/09/23 12:16:06;;;;;;;0.00;0.00;;;18.80;96.10;;;;;;5041442;28;20037;-81
2022/09/23 12:18:46;;;;;;;0.00;0.00;;;18.70;95.80;;;;;;5045303;28;20033;-81
2022/09/23 12:21:41;;;;;;;0.00;0.00;;;18.80;96.10;;;;;;5037861;28;20044;-81
2022/09/23 12:24:43;;;;;;;0.00;0.00;;;18.70;96.70;;;;;;5043027;28;20048;-81
2022/09/23 12:27:22;;;;;;;0.00;0.00;;;18.70;95.70;;;;;;5041144;28;20043;-80
2022/09/23 12:29:54;;;;;;;0.00;0.00;;;18.90;95.50;;;;;;5045295;28;20074;-80
2022/09/23 12:32:23;;;;;;;0.00;0.00;;;18.90;95.10;;;;;;5053826;28;20480;-80
2022/09/23 12:34:51;;;;;;;0.00;0.00;;;19.00;95.40;;;;;;5047233;28;20037;-81
2022/09/23 12:37:26;;;;;;;0.00;0.00;;;19.00;94.00;;;;;;5041483;28;20037;-79
2022/09/23 12:39:57;;;;;;;0.00;0.00;;;19.00;93.60;;;;;;5047543;28;20517;-80
2022/09/23 12:42:24;;;;;;;0.00;0.00;;;18.90;93.60;;;;;;5044740;28;20055;-81
2022/09/23 12:45:31;;;;;;;0.00;0.00;;;18.70;93.40;;;;;;5036741;28;20057;-80
2022/09/23 12:47:59;;;;;;;0.00;0.00;;;18.80;93.20;;;;;;5041977;28;20072;-81
2022/09/23 12:50:52;;;;;;;0.00;0.00;;;18.80;93.40;;;;;;5043322;28;20041;-81
2022/09/23 12:53:58;;;;;;;0.00;0.00;;;18.70;93.30;;;;;;5035626;28;20047;-80
2022/09/23 12:56:55;;;;;;;0.00;0.00;;;18.90;93.20;;;;;;5026767;28;20064;-81
2022/09/23 12:59:29;;;;;;;0.00;0.00;;;19.00;93.90;;;;;;5036986;28;20048;-81
2022/09/23 13:01:56;;;;;;;0.00;0.00;;;19.30;93.90;;;;;;5040783;28;20500;-81
2022/09/23 13:07:24;;;;;;;0.00;0.00;;;19.50;93.80;;;;;;5044214;28;20047;-80
2022/09/23 13:10:05;;;;;;;0.00;0.00;;;19.50;93.50;;;;;;5048694;28;20041;-81
2022/09/23 13:12:38;;;;;;;0.00;0.00;;;19.70;92.00;;;;;;5047644;28;20041;-80
2022/09/23 13:15:17;;;;;;;0.00;0.00;;;19.70;92.70;;;;;;5039353;28;20521;-80
2022/09/23 13:17:43;;;;;;;0.00;0.00;;;19.40;93.40;;;;;;5042615;28;20043;-81
2022/09/23 13:20:35;;;;;;;0.00;0.00;;;19.30;92.60;;;;;;5048569;28;20295;-80
2022/09/23 13:23:14;;;;;;;0.00;0.00;;;19.40;93.20;;;;;;5043309;28;20038;-80
2022/09/23 13:25:42;;;;;;;0.00;0.00;;;19.60;93.20;;;;;;5042109;28;20043;-82
2022/09/23 13:28:32;;;;;;;0.00;0.00;;;19.70;92.50;;;;;;5048573;28;20055;-80
2022/09/23 13:31:04;;;;;;;0.00;0.00;;;19.60;92.00;;;;;;5047357;28;20099;-80